Time;durP1;ratioP1;P1;durP2;ratioP2;P2;SDS_P1;SDS_P2;PMS_P1;PMS_P2;Temp;Humidity;BMP_temperature;BMP_pressure;BME280_temperature;BME280_humidity;BME280_pressure;Samples;Min_cycle;Max_cycle;Signal;HPM_P1;HPM_P2
2023/11/06 00:02:17;;;;;;;11.40;3.00;;;;;;;;;;5046963;28;20203;-68
2023/11/06 00:04:43;;;;;;;6.20;2.37;;;;;;;;;;5048251;28;20169;-67
2023/11/06 00:07:08;;;;;;;6.13;2.20;;;;;;;;;;5046835;28;20305;-67
2023/11/06 00:09:33;;;;;;;11.93;2.37;;;;;;;;;;5059162;28;20196;-67
2023/11/06 00:11:59;;;;;;;9.87;3.17;;;;;;;;;;5043829;28;20213;-67
2023/11/06 00:14:24;;;;;;;6.23;2.27;;;;;;;;;;5047011;28;20184;-66
2023/11/06 00:16:51;;;;;;;6.03;2.67;;;;;;;;;;5056924;28;20204;-66
2023/11/06 00:19:16;;;;;;;4.13;1.97;;;;;;;;;;5067842;28;20177;-66
2023/11/06 00:21:42;;;;;;;7.07;1.87;;;;;;;;;;5064545;28;20189;-66
2023/11/06 00:24:07;;;;;;;6.93;2.67;;;;;;;;;;5064869;28;20639;-67
2023/11/06 00:26:33;;;;;;;7.17;2.33;;;;;;;;;;5063004;28;20181;-66
2023/11/06 00:28:58;;;;;;;6.17;2.20;;;;;;;;;;5059347;28;20172;-66
2023/11/06 00:31:24;;;;;;;7.90;2.00;;;;;;;;;;5064748;28;20216;-66
2023/11/06 00:33:49;;;;;;;5.73;1.87;;;;;;;;;;5065637;28;20181;-67
2023/11/06 00:36:17;;;;;;;6.07;1.40;;;;;;;;;;5069665;28;20215;-66
2023/11/06 00:38:43;;;;;;;5.60;1.83;;;;;;;;;;5060490;28;20321;-67
2023/11/06 00:41:08;;;;;;;6.13;1.70;;;;;;;;;;5064836;28;20299;-66
2023/11/06 00:43:33;;;;;;;7.27;1.97;;;;;;;;;;5067348;28;20263;-68
2023/11/06 00:45:58;;;;;;;5.33;1.93;;;;;;;;;;5067036;28;20173;-66
2023/11/06 00:48:23;;;;;;;5.23;1.73;;;;;;;;;;5070479;28;20710;-66
2023/11/06 00:50:48;;;;;;;5.00;1.40;;;;;;;;;;5070347;28;20239;-66
2023/11/06 00:53:14;;;;;;;5.67;1.80;;;;;;;;;;5071344;28;20208;-66
2023/11/06 00:55:40;;;;;;;4.40;1.47;;;;;;;;;;5071598;28;20303;-66
2023/11/06 00:58:05;;;;;;;2.67;1.83;;;;;;;;;;5069162;28;20190;-66
2023/11/06 01:00:30;;;;;;;4.50;1.70;;;;;;;;;;5061332;28;20212;-66
2023/11/06 01:02:55;;;;;;;5.20;2.13;;;;;;;;;;5071621;28;20181;-66
2023/11/06 01:05:20;;;;;;;2.77;1.70;;;;;;;;;;5071858;28;20181;-67
2023/11/06 01:07:46;;;;;;;3.97;1.80;;;;;;;;;;5071874;28;20210;-67
2023/11/06 01:10:14;;;;;;;7.13;2.27;;;;;;;;;;5071602;28;20200;-67
2023/11/06 01:12:39;;;;;;;7.47;1.63;;;;;;;;;;5071632;28;20180;-68
2023/11/06 01:15:05;;;;;;;3.27;1.20;;;;;;;;;;5070798;28;20165;-68
2023/11/06 01:17:30;;;;;;;5.47;1.70;;;;;;;;;;5067105;28;20199;-68
2023/11/06 01:19:55;;;;;;;4.70;1.93;;;;;;;;;;5067932;28;20205;-68
2023/11/06 01:22:20;;;;;;;2.60;1.30;;;;;;;;;;5072542;28;20215;-68
2023/11/06 01:24:46;;;;;;;4.43;1.20;;;;;;;;;;5070796;28;20191;-68
2023/11/06 01:27:11;;;;;;;4.47;1.70;;;;;;;;;;5047658;28;20204;-68
2023/11/06 01:29:36;;;;;;;4.43;1.43;;;;;;;;;;5067993;28;20181;-66
2023/11/06 01:32:03;;;;;;;3.23;1.90;;;;;;;;;;5055641;28;20188;-66
2023/11/06 01:34:28;;;;;;;6.50;1.90;;;;;;;;;;5066928;28;20177;-67
2023/11/06 01:36:53;;;;;;;3.60;1.87;;;;;;;;;;5071047;28;20250;-66
2023/11/06 01:39:18;;;;;;;4.60;1.97;;;;;;;;;;5072715;28;20478;-66
2023/11/06 01:41:45;;;;;;;2.90;1.90;;;;;;;;;;5072139;28;20254;-66
2023/11/06 01:44:10;;;;;;;5.80;2.83;;;;;;;;;;5064555;28;20237;-68
2023/11/06 01:46:36;;;;;;;5.03;2.07;;;;;;;;;;5065002;28;20216;-67
2023/11/06 01:49:01;;;;;;;4.07;2.30;;;;;;;;;;5072674;28;20202;-67
2023/11/06 01:51:28;;;;;;;6.00;2.43;;;;;;;;;;5073671;28;20203;-67
2023/11/06 01:53:54;;;;;;;6.43;2.03;;;;;;;;;;5072724;28;20255;-68
2023/11/06 01:56:19;;;;;;;7.90;2.40;;;;;;;;;;5072691;28;20272;-66
2023/11/06 01:58:45;;;;;;;4.20;2.20;;;;;;;;;;5070654;28;20598;-67
2023/11/06 02:01:11;;;;;;;3.13;1.80;;;;;;;;;;5061791;28;20236;-66
2023/11/06 02:03:36;;;;;;;7.57;2.37;;;;;;;;;;5067299;28;20589;-67
2023/11/06 02:06:03;;;;;;;12.60;2.60;;;;;;;;;;5072577;28;20177;-67
2023/11/06 02:08:31;;;;;;;12.03;2.67;;;;;;;;;;5071760;28;20207;-67
2023/11/06 02:10:58;;;;;;;4.63;2.67;;;;;;;;;;5060872;28;20193;-67
2023/11/06 02:13:25;;;;;;;8.30;2.73;;;;;;;;;;5070743;28;20662;-67
2023/11/06 02:15:51;;;;;;;4.87;3.20;;;;;;;;;;5070520;28;20173;-67
2023/11/06 02:18:16;;;;;;;11.73;3.00;;;;;;;;;;5071686;28;20177;-67
2023/11/06 02:20:41;;;;;;;5.53;2.87;;;;;;;;;;5072182;28;20243;-66
2023/11/06 02:23:08;;;;;;;7.10;3.30;;;;;;;;;;5070602;28;20636;-67
2023/11/06 02:25:33;;;;;;;7.97;3.20;;;;;;;;;;5072265;28;20176;-66
2023/11/06 02:27:59;;;;;;;7.23;3.57;;;;;;;;;;5067385;28;20203;-67
2023/11/06 02:30:24;;;;;;;6.97;3.20;;;;;;;;;;5069846;28;20197;-67
2023/11/06 02:32:49;;;;;;;6.70;2.47;;;;;;;;;;5070237;28;20536;-67
2023/11/06 02:35:14;;;;;;;9.50;3.13;;;;;;;;;;5071290;28;20177;-67
2023/11/06 02:37:40;;;;;;;7.50;2.60;;;;;;;;;;5051992;28;20259;-68
2023/11/06 02:40:06;;;;;;;7.60;2.80;;;;;;;;;;5069804;28;20763;-67
2023/11/06 02:42:32;;;;;;;9.30;2.33;;;;;;;;;;5067871;28;20177;-67
2023/11/06 02:44:58;;;;;;;6.10;3.73;;;;;;;;;;5071308;28;20181;-67
2023/11/06 02:47:23;;;;;;;5.27;2.10;;;;;;;;;;5061135;28;20212;-67
2023/11/06 02:49:49;;;;;;;3.67;2.47;;;;;;;;;;5063235;28;20203;-67
2023/11/06 02:52:14;;;;;;;5.03;2.37;;;;;;;;;;5067710;28;20181;-67
2023/11/06 02:54:40;;;;;;;5.67;2.67;;;;;;;;;;5068552;28;20190;-67
2023/11/06 02:57:05;;;;;;;3.67;2.40;;;;;;;;;;5068626;28;20173;-67
2023/11/06 02:59:33;;;;;;;4.33;1.97;;;;;;;;;;5069352;28;20667;-67
2023/11/06 03:01:58;;;;;;;6.00;2.43;;;;;;;;;;5068877;28;20667;-67
2023/11/06 03:04:24;;;;;;;8.73;2.57;;;;;;;;;;5069845;28;20279;-67
2023/11/06 03:06:49;;;;;;;6.17;2.20;;;;;;;;;;5060587;28;20239;-67
2023/11/06 03:09:15;;;;;;;5.50;1.77;;;;;;;;;;5064446;28;20318;-67
2023/11/06 03:11:40;;;;;;;4.87;1.60;;;;;;;;;;5065754;28;20692;-67
2023/11/06 03:14:05;;;;;;;6.83;2.90;;;;;;;;;;5070055;28;20263;-67
2023/11/06 03:16:34;;;;;;;6.87;2.33;;;;;;;;;;5069909;28;20579;-67
2023/11/06 03:19:00;;;;;;;7.13;2.03;;;;;;;;;;5068110;28;20188;-67
2023/11/06 03:21:25;;;;;;;7.53;2.60;;;;;;;;;;5069656;28;20279;-67
2023/11/06 03:23:50;;;;;;;4.90;2.37;;;;;;;;;;5065795;28;20554;-67
2023/11/06 03:26:15;;;;;;;8.17;2.50;;;;;;;;;;5062899;28;20170;-67
2023/11/06 03:28:41;;;;;;;5.27;2.20;;;;;;;;;;5066097;28;20242;-66
2023/11/06 03:31:07;;;;;;;8.50;2.40;;;;;;;;;;5069711;28;20208;-66
2023/11/06 03:33:32;;;;;;;7.30;2.10;;;;;;;;;;5065250;28;20259;-67
2023/11/06 03:36:00;;;;;;;10.17;2.47;;;;;;;;;;5065749;28;20271;-67
2023/11/06 03:38:25;;;;;;;6.70;2.10;;;;;;;;;;5068124;28;20180;-67
2023/11/06 03:40:51;;;;;;;9.37;2.33;;;;;;;;;;5063197;28;20545;-66
2023/11/06 03:43:16;;;;;;;5.07;1.60;;;;;;;;;;5067446;28;20212;-67
2023/11/06 03:45:41;;;;;;;10.03;2.37;;;;;;;;;;5066121;28;20636;-66
2023/11/06 03:48:07;;;;;;;5.60;1.80;;;;;;;;;;5049145;28;20292;-67
2023/11/06 03:50:32;;;;;;;5.87;1.50;;;;;;;;;;5062735;28;20197;-67
2023/11/06 03:52:57;;;;;;;3.03;1.33;;;;;;;;;;5066971;28;20594;-67
2023/11/06 03:55:22;;;;;;;7.63;3.13;;;;;;;;;;5068936;28;20595;-67
2023/11/06 03:57:47;;;;;;;3.20;1.60;;;;;;;;;;5063056;28;20185;-67
2023/11/06 04:00:13;;;;;;;3.10;1.80;;;;;;;;;;5062345;28;20216;-67
2023/11/06 04:02:38;;;;;;;5.97;1.30;;;;;;;;;;5067766;28;20825;-66
2023/11/06 04:05:03;;;;;;;5.07;1.50;;;;;;;;;;5066051;28;20177;-67
2023/11/06 04:07:29;;;;;;;3.33;1.10;;;;;;;;;;5067367;28;20284;-66
2023/11/06 04:09:55;;;;;;;3.67;1.40;;;;;;;;;;5069889;28;20212;-66
2023/11/06 04:12:22;;;;;;;4.23;1.80;;;;;;;;;;5064596;28;20177;-67
2023/11/06 04:14:47;;;;;;;5.73;1.77;;;;;;;;;;5047132;28;20264;-66
2023/11/06 04:17:13;;;;;;;3.77;1.10;;;;;;;;;;5062541;28;20754;-67
2023/11/06 04:19:38;;;;;;;10.63;1.87;;;;;;;;;;5066920;28;20749;-66
2023/11/06 04:22:03;;;;;;;3.27;1.53;;;;;;;;;;5069361;28;20527;-68
2023/11/06 04:24:28;;;;;;;5.60;1.40;;;;;;;;;;5068477;28;20184;-67
2023/11/06 04:26:54;;;;;;;4.87;1.17;;;;;;;;;;5066430;28;20648;-67
2023/11/06 04:29:19;;;;;;;4.23;1.23;;;;;;;;;;5068074;28;20188;-67
2023/11/06 04:31:44;;;;;;;4.23;1.20;;;;;;;;;;5067758;28;20205;-67
2023/11/06 04:34:09;;;;;;;5.60;1.83;;;;;;;;;;5060860;28;20185;-67
2023/11/06 04:36:34;;;;;;;2.27;1.10;;;;;;;;;;5068617;28;20181;-67
2023/11/06 04:39:00;;;;;;;3.23;1.50;;;;;;;;;;5069487;28;20591;-67
2023/11/06 04:41:25;;;;;;;4.17;1.20;;;;;;;;;;5070210;28;20234;-67
2023/11/06 04:43:50;;;;;;;5.63;0.77;;;;;;;;;;5068497;28;20173;-67
2023/11/06 04:46:15;;;;;;;5.93;1.03;;;;;;;;;;5068896;28;20612;-67
2023/11/06 04:48:41;;;;;;;2.27;0.97;;;;;;;;;;5065832;28;20220;-67
2023/11/06 04:51:07;;;;;;;3.83;1.10;;;;;;;;;;5049471;28;20197;-67
2023/11/06 04:53:32;;;;;;;1.67;0.87;;;;;;;;;;5066311;28;20191;-67
2023/11/06 04:55:57;;;;;;;4.87;1.03;;;;;;;;;;5069892;28;20628;-67
2023/11/06 04:58:25;;;;;;;5.10;1.63;;;;;;;;;;5060335;28;20204;-67
2023/11/06 05:00:51;;;;;;;5.90;1.73;;;;;;;;;;5068173;28;20270;-67
2023/11/06 05:03:16;;;;;;;2.03;1.30;;;;;;;;;;5053858;28;20181;-67
2023/11/06 05:05:41;;;;;;;2.53;0.77;;;;;;;;;;5072421;28;20188;-67
2023/11/06 05:08:06;;;;;;;3.33;0.80;;;;;;;;;;5072526;28;20209;-67
2023/11/06 05:10:31;;;;;;;3.83;0.90;;;;;;;;;;5073213;28;20196;-67
2023/11/06 05:12:57;;;;;;;3.27;0.90;;;;;;;;;;5071607;28;20177;-67
2023/11/06 05:15:24;;;;;;;2.93;0.73;;;;;;;;;;5071497;28;20184;-67
2023/11/06 05:17:49;;;;;;;3.33;0.80;;;;;;;;;;5069552;28;20686;-67
2023/11/06 05:20:16;;;;;;;5.33;1.07;;;;;;;;;;5063064;28;20239;-67
2023/11/06 05:22:42;;;;;;;3.07;0.80;;;;;;;;;;5064761;28;20314;-67
2023/11/06 05:25:08;;;;;;;5.10;1.70;;;;;;;;;;5071285;28;20656;-67
2023/11/06 05:27:33;;;;;;;5.60;1.43;;;;;;;;;;5070913;28;20201;-67
2023/11/06 05:29:58;;;;;;;4.63;1.00;;;;;;;;;;5071050;28;20573;-67
2023/11/06 05:32:23;;;;;;;3.67;1.40;;;;;;;;;;5070106;28;20620;-67
2023/11/06 05:34:49;;;;;;;6.80;1.10;;;;;;;;;;5071361;28;20248;-67
2023/11/06 05:37:14;;;;;;;3.50;1.37;;;;;;;;;;5065925;28;20180;-67
2023/11/06 05:39:39;;;;;;;3.00;1.20;;;;;;;;;;5063894;28;20246;-67
2023/11/06 05:42:05;;;;;;;4.53;1.50;;;;;;;;;;5067314;28;20185;-66
2023/11/06 05:44:31;;;;;;;6.27;2.17;;;;;;;;;;5071677;28;20246;-66
2023/11/06 05:46:56;;;;;;;2.97;0.90;;;;;;;;;;5071128;28;20242;-67
2023/11/06 05:49:21;;;;;;;5.87;1.53;;;;;;;;;;5071920;28;20185;-67
2023/11/06 05:51:48;;;;;;;8.63;1.60;;;;;;;;;;5069428;28;20202;-67
2023/11/06 05:54:15;;;;;;;7.03;1.37;;;;;;;;;;5068591;28;20197;-67
2023/11/06 05:56:40;;;;;;;4.03;1.80;;;;;;;;;;5070428;28;21182;-66
2023/11/06 05:59:05;;;;;;;5.20;2.30;;;;;;;;;;5062437;28;20524;-67
2023/11/06 06:01:31;;;;;;;5.53;2.00;;;;;;;;;;5062531;28;20252;-67
2023/11/06 06:03:56;;;;;;;7.57;1.90;;;;;;;;;;5055463;28;20204;-67
2023/11/06 06:06:22;;;;;;;5.60;1.93;;;;;;;;;;5064311;28;20181;-67
2023/11/06 06:08:48;;;;;;;4.17;2.10;;;;;;;;;;5067741;28;20235;-67
2023/11/06 06:11:13;;;;;;;4.93;2.23;;;;;;;;;;5068521;28;20456;-67
2023/11/06 06:13:38;;;;;;;5.97;2.63;;;;;;;;;;5065490;28;20176;-66
2023/11/06 06:16:04;;;;;;;4.50;2.40;;;;;;;;;;5063193;28;20554;-66
2023/11/06 06:18:30;;;;;;;8.47;2.90;;;;;;;;;;5063509;28;20676;-67
2023/11/06 06:20:55;;;;;;;5.23;1.97;;;;;;;;;;5045946;28;20205;-66
2023/11/06 06:23:21;;;;;;;7.27;2.43;;;;;;;;;;5061508;28;20318;-67
2023/11/06 06:25:46;;;;;;;9.13;2.90;;;;;;;;;;5056391;28;22102;-67
2023/11/06 06:28:11;;;;;;;11.27;3.83;;;;;;;;;;5062146;28;22329;-66
2023/11/06 06:30:36;;;;;;;10.33;3.03;;;;;;;;;;5062459;28;20624;-66
2023/11/06 06:33:02;;;;;;;9.03;3.23;;;;;;;;;;5067591;28;20173;-66
2023/11/06 06:35:27;;;;;;;6.73;2.33;;;;;;;;;;5070599;28;20181;-68
2023/11/06 06:37:53;;;;;;;4.57;2.30;;;;;;;;;;5066284;28;20659;-67
2023/11/06 06:40:20;;;;;;;11.43;3.17;;;;;;;;;;5050313;28;20201;-67
2023/11/06 06:42:45;;;;;;;4.30;2.63;;;;;;;;;;5056874;28;20495;-67
2023/11/06 06:45:10;;;;;;;9.60;3.17;;;;;;;;;;5065873;28;20318;-67
2023/11/06 06:47:35;;;;;;;7.40;2.20;;;;;;;;;;5053598;28;20265;-66
2023/11/06 06:50:00;;;;;;;15.03;2.60;;;;;;;;;;5069225;28;20620;-66
2023/11/06 06:52:26;;;;;;;8.77;3.53;;;;;;;;;;5069977;28;20173;-67
2023/11/06 06:54:51;;;;;;;6.53;2.37;;;;;;;;;;5070895;28;20240;-67
2023/11/06 06:57:16;;;;;;;5.97;2.30;;;;;;;;;;5070580;28;20184;-66
2023/11/06 06:59:41;;;;;;;7.17;2.30;;;;;;;;;;5069543;28;20657;-66
2023/11/06 07:02:07;;;;;;;13.17;2.20;;;;;;;;;;5062167;28;20273;-67
2023/11/06 07:04:33;;;;;;;11.87;2.90;;;;;;;;;;5069529;28;20181;-67
2023/11/06 07:06:58;;;;;;;5.20;1.73;;;;;;;;;;5068662;28;20181;-67
2023/11/06 07:09:25;;;;;;;5.33;1.80;;;;;;;;;;5069971;28;20179;-67
2023/11/06 07:11:50;;;;;;;9.60;1.60;;;;;;;;;;5052131;28;20612;-67
2023/11/06 07:14:16;;;;;;;7.50;3.27;;;;;;;;;;5070236;28;20203;-67
2023/11/06 07:16:41;;;;;;;8.90;1.80;;;;;;;;;;5070075;28;20283;-67
2023/11/06 07:19:06;;;;;;;7.77;1.70;;;;;;;;;;5067936;28;20173;-67
2023/11/06 07:21:32;;;;;;;5.80;2.77;;;;;;;;;;5060504;28;20647;-67
2023/11/06 07:23:57;;;;;;;8.20;1.50;;;;;;;;;;5055303;28;20196;-67
2023/11/06 07:26:22;;;;;;;4.87;1.70;;;;;;;;;;5070776;28;20168;-68
2023/11/06 07:28:47;;;;;;;4.27;2.07;;;;;;;;;;5070915;28;20232;-67
2023/11/06 07:31:13;;;;;;;6.43;2.00;;;;;;;;;;5070028;28;20204;-67
2023/11/06 07:33:38;;;;;;;6.03;1.50;;;;;;;;;;5069585;28;20181;-67
2023/11/06 07:36:03;;;;;;;3.30;2.00;;;;;;;;;;5067089;28;20177;-67
2023/11/06 07:38:29;;;;;;;4.97;1.53;;;;;;;;;;5063109;28;20236;-67
2023/11/06 07:40:54;;;;;;;9.93;1.83;;;;;;;;;;5051133;28;20291;-67
2023/11/06 07:43:19;;;;;;;3.00;1.43;;;;;;;;;;5071054;28;20184;-68
2023/11/06 07:45:45;;;;;;;5.67;1.27;;;;;;;;;;5059695;28;20185;-67
2023/11/06 07:48:10;;;;;;;8.57;1.77;;;;;;;;;;5070025;28;20561;-67
2023/11/06 07:50:36;;;;;;;5.77;1.53;;;;;;;;;;5070445;28;20552;-67
2023/11/06 07:53:01;;;;;;;11.03;1.60;;;;;;;;;;5070579;28;20378;-67
2023/11/06 07:55:26;;;;;;;2.80;1.70;;;;;;;;;;5070816;28;20177;-67
2023/11/06 07:57:52;;;;;;;6.17;1.30;;;;;;;;;;5053611;28;20187;-68
2023/11/06 08:00:17;;;;;;;3.50;0.95;;;;;;;;;;5075870;22;20225;-65
2023/11/06 08:02:42;;;;;;;3.00;0.93;;;;;;;;;;5030596;28;20198;-65
2023/11/06 08:05:11;;;;;;;2.45;1.20;;;;;;;;;;5026951;28;20193;-65
2023/11/06 08:07:36;;;;;;;6.15;1.40;;;;;;;;;;5034471;28;20720;-65
2023/11/06 08:10:03;;;;;;;5.68;1.10;;;;;;;;;;5017355;28;20316;-65
2023/11/06 08:12:28;;;;;;;7.68;1.65;;;;;;;;;;5016794;28;20166;-66
2023/11/06 08:14:53;;;;;;;3.53;0.70;;;;;;;;;;5028699;28;20660;-66
2023/11/06 08:17:19;;;;;;;7.05;1.10;;;;;;;;;;5019160;28;20182;-65
2023/11/06 08:19:44;;;;;;;10.48;2.08;;;;;;;;;;5033932;28;20595;-64
2023/11/06 08:22:09;;;;;;;4.88;1.25;;;;;;;;;;5032230;28;20213;-65
2023/11/06 08:24:35;;;;;;;8.57;1.27;;;;;;;;;;5034239;28;20655;-65
2023/11/06 08:27:01;;;;;;;6.22;2.00;;;;;;;;;;5031410;28;21701;-65
2023/11/06 08:29:27;;;;;;;8.30;1.33;;;;;;;;;;5017666;28;20183;-65
2023/11/06 08:31:53;;;;;;;5.80;1.38;;;;;;;;;;5023601;28;20195;-65
2023/11/06 08:34:21;;;;;;;4.45;1.20;;;;;;;;;;5025531;28;20174;-66
2023/11/06 08:36:46;;;;;;;6.38;1.42;;;;;;;;;;5033874;28;20177;-65
2023/11/06 08:39:12;;;;;;;5.97;1.70;;;;;;;;;;5033859;28;20186;-65
2023/11/06 08:41:37;;;;;;;7.68;1.27;;;;;;;;;;5038198;28;20588;-65
2023/11/06 08:44:03;;;;;;;10.57;1.98;;;;;;;;;;5041032;28;20557;-66
2023/11/06 08:46:28;;;;;;;11.13;1.80;;;;;;;;;;5034836;28;20672;-66
2023/11/06 08:48:53;;;;;;;5.38;2.03;;;;;;;;;;5032150;28;20202;-67
2023/11/06 08:51:18;;;;;;;8.88;1.92;;;;;;;;;;5034322;28;20557;-67
2023/11/06 08:53:44;;;;;;;10.95;2.45;;;;;;;;;;5037341;28;20185;-67
2023/11/06 08:56:10;;;;;;;3.92;1.45;;;;;;;;;;5020481;28;20229;-65
2023/11/06 08:58:38;;;;;;;9.65;2.08;;;;;;;;;;5036073;28;20179;-66
2023/11/06 09:01:03;;;;;;;10.50;2.47;;;;;;;;;;5040911;28;20209;-65
2023/11/06 09:03:28;;;;;;;6.23;2.00;;;;;;;;;;5035586;28;20758;-65
2023/11/06 09:05:53;;;;;;;6.47;2.17;;;;;;;;;;5026012;28;20185;-66
2023/11/06 09:08:19;;;;;;;6.97;2.63;;;;;;;;;;5031384;28;20210;-65
2023/11/06 09:10:44;;;;;;;12.13;3.85;;;;;;;;;;5040587;28;20233;-66
2023/11/06 09:13:09;;;;;;;7.05;2.35;;;;;;;;;;5037194;28;20206;-65
2023/11/06 09:15:38;;;;;;;7.47;2.60;;;;;;;;;;5040527;28;20174;-66
2023/11/06 09:18:04;;;;;;;8.27;2.75;;;;;;;;;;5023932;28;20233;-65
2023/11/06 09:20:29;;;;;;;8.60;3.10;;;;;;;;;;5035704;28;20198;-66
2023/11/06 09:22:54;;;;;;;7.03;2.03;;;;;;;;;;5029833;28;20194;-66
2023/11/06 09:25:19;;;;;;;7.72;1.88;;;;;;;;;;5015616;28;20175;-66
2023/11/06 09:27:45;;;;;;;15.80;3.90;;;;;;;;;;5035124;28;20218;-66
2023/11/06 09:30:11;;;;;;;7.40;3.17;;;;;;;;;;5033473;28;20190;-66
2023/11/06 09:32:37;;;;;;;5.88;1.90;;;;;;;;;;5023649;28;20179;-67
2023/11/06 09:35:03;;;;;;;8.30;2.05;;;;;;;;;;5040957;28;20253;-67
2023/11/06 09:37:29;;;;;;;3.92;1.33;;;;;;;;;;5036226;28;20175;-66
2023/11/06 09:39:54;;;;;;;2.83;1.60;;;;;;;;;;5040732;28;20182;-66
2023/11/06 09:42:19;;;;;;;4.45;1.65;;;;;;;;;;5037179;28;20286;-66
2023/11/06 09:44:46;;;;;;;6.57;2.00;;;;;;;;;;5023412;28;20612;-66
2023/11/06 09:47:11;;;;;;;6.32;1.63;;;;;;;;;;5018263;28;20268;-66
2023/11/06 09:49:58;;;;;;;3.63;1.40;;;;;;;;;;5033641;28;20257;-66
2023/11/06 09:52:26;;;;;;;3.55;1.42;;;;;;;;;;5024657;28;20178;-66
2023/11/06 09:54:51;;;;;;;7.53;1.63;;;;;;;;;;5040056;28;20217;-66
2023/11/06 09:57:17;;;;;;;8.25;1.95;;;;;;;;;;5034926;28;20653;-66
2023/11/06 09:59:42;;;;;;;16.02;2.20;;;;;;;;;;5020444;28;20189;-66
2023/11/06 10:02:08;;;;;;;3.83;1.30;;;;;;;;;;5040048;28;20648;-66
2023/11/06 10:04:35;;;;;;;6.68;2.28;;;;;;;;;;5034263;28;20434;-66
2023/11/06 10:07:00;;;;;;;3.38;1.35;;;;;;;;;;5025877;28;20182;-66
2023/11/06 10:09:26;;;;;;;5.50;2.20;;;;;;;;;;5034961;28;20656;-67
2023/11/06 10:11:52;;;;;;;5.57;1.40;;;;;;;;;;5038980;28;20198;-66
2023/11/06 10:14:17;;;;;;;4.85;1.52;;;;;;;;;;5020295;28;20658;-66
2023/11/06 10:16:42;;;;;;;5.82;1.50;;;;;;;;;;5037766;28;20235;-66
2023/11/06 10:19:08;;;;;;;6.35;1.23;;;;;;;;;;5041000;28;20268;-67
2023/11/06 10:21:34;;;;;;;2.92;1.25;;;;;;;;;;5035764;28;20195;-66
2023/11/06 10:24:00;;;;;;;4.03;1.15;;;;;;;;;;5038014;28;20216;-67
2023/11/06 10:26:31;;;;;;;4.97;1.75;;;;;;;;;;5032916;28;20171;-66
2023/11/06 10:29:15;;;;;;;5.60;1.10;;;;;;;;;;5015450;28;20198;-67
2023/11/06 10:31:42;;;;;;;7.28;1.35;;;;;;;;;;5019085;28;20306;-67
2023/11/06 10:34:22;;;;;;;7.07;2.38;;;;;;;;;;5039986;28;20547;-66
2023/11/06 10:36:58;;;;;;;4.43;1.60;;;;;;;;;;5035384;28;20273;-66
2023/11/06 10:39:24;;;;;;;7.82;1.70;;;;;;;;;;5037350;28;20253;-66
2023/11/06 10:41:58;;;;;;;5.72;1.48;;;;;;;;;;5038336;28;20197;-66
2023/11/06 10:44:23;;;;;;;3.30;1.20;;;;;;;;;;5037349;28;20179;-67
2023/11/06 10:46:49;;;;;;;4.10;1.20;;;;;;;;;;5042057;28;20235;-67
2023/11/06 10:49:17;;;;;;;7.22;1.40;;;;;;;;;;5014627;28;20206;-66
2023/11/06 10:51:43;;;;;;;5.28;1.35;;;;;;;;;;5039947;28;20213;-66
2023/11/06 10:54:09;;;;;;;6.45;1.52;;;;;;;;;;5033236;28;20193;-66
2023/11/06 10:56:35;;;;;;;3.78;1.30;;;;;;;;;;5019322;28;20183;-67
2023/11/06 10:59:01;;;;;;;9.15;1.77;;;;;;;;;;5035975;28;20189;-66
2023/11/06 11:01:28;;;;;;;5.82;1.83;;;;;;;;;;5038063;28;20264;-66
2023/11/06 11:03:54;;;;;;;2.50;1.02;;;;;;;;;;5041873;28;20197;-66
2023/11/06 11:06:19;;;;;;;5.80;1.70;;;;;;;;;;5037052;28;20205;-66
2023/11/06 11:08:46;;;;;;;3.97;1.60;;;;;;;;;;5038852;28;20672;-66
2023/11/06 11:11:11;;;;;;;6.82;2.33;;;;;;;;;;5021246;28;20637;-67
2023/11/06 11:13:37;;;;;;;3.05;1.50;;;;;;;;;;5044742;28;20684;-66
2023/11/06 11:16:41;;;;;;;4.50;1.00;;;;;;;;;;5037315;28;20182;-66
2023/11/06 11:19:27;;;;;;;5.43;1.35;;;;;;;;;;4950007;28;20239;-66
2023/11/06 11:22:05;;;;;;;5.63;1.17;;;;;;;;;;4946298;28;20655;-66
2023/11/06 11:24:42;;;;;;;4.78;1.48;;;;;;;;;;5006515;28;20667;-66
2023/11/06 11:27:16;;;;;;;1.73;1.17;;;;;;;;;;5036552;28;20403;-66
2023/11/06 11:29:53;;;;;;;5.30;1.33;;;;;;;;;;5038492;28;20306;-66
2023/11/06 11:32:21;;;;;;;7.93;1.30;;;;;;;;;;5034389;28;20170;-66
2023/11/06 11:34:46;;;;;;;5.13;1.20;;;;;;;;;;5033979;28;20182;-67
2023/11/06 11:37:35;;;;;;;4.22;1.50;;;;;;;;;;5032904;28;20190;-67
2023/11/06 11:40:02;;;;;;;6.43;1.50;;;;;;;;;;5020389;28;20194;-66
2023/11/06 11:42:28;;;;;;;7.03;1.45;;;;;;;;;;5039306;28;20597;-67
2023/11/06 11:44:57;;;;;;;10.13;1.40;;;;;;;;;;5017358;28;20188;-67
2023/11/06 11:47:31;;;;;;;5.38;1.35;;;;;;;;;;5035028;28;20861;-67
2023/11/06 11:49:57;;;;;;;3.75;1.50;;;;;;;;;;5012669;28;20186;-67
2023/11/06 11:52:22;;;;;;;4.35;1.60;;;;;;;;;;5034913;28;20174;-67
2023/11/06 11:54:47;;;;;;;6.53;1.98;;;;;;;;;;5037498;28;20175;-67
2023/11/06 11:57:12;;;;;;;6.55;1.95;;;;;;;;;;5030803;28;20186;-67
2023/11/06 11:59:42;;;;;;;8.13;1.58;;;;;;;;;;5040998;28;20173;-67
2023/11/06 12:02:08;;;;;;;5.70;1.52;;;;;;;;;;5042509;28;20305;-67
2023/11/06 12:04:33;;;;;;;2.67;1.10;;;;;;;;;;5043648;28;20170;-67
2023/11/06 12:06:58;;;;;;;5.13;1.45;;;;;;;;;;5046399;28;20181;-67
2023/11/06 12:09:24;;;;;;;4.78;1.38;;;;;;;;;;5047917;28;20241;-67
2023/11/06 12:11:49;;;;;;;3.50;1.00;;;;;;;;;;5043576;28;20194;-67
2023/11/06 12:14:15;;;;;;;3.60;1.25;;;;;;;;;;5048150;28;20197;-67
2023/11/06 12:16:50;;;;;;;4.43;1.60;;;;;;;;;;5034632;28;20182;-67
2023/11/06 12:19:15;;;;;;;8.00;1.30;;;;;;;;;;5026574;28;20174;-67
2023/11/06 12:21:41;;;;;;;4.15;1.23;;;;;;;;;;5026850;28;20270;-67
2023/11/06 12:24:07;;;;;;;4.60;1.42;;;;;;;;;;5028658;28;20261;-67
2023/11/06 12:26:33;;;;;;;5.55;1.42;;;;;;;;;;5024610;28;20186;-65
2023/11/06 12:28:58;;;;;;;5.13;1.50;;;;;;;;;;5024832;28;20217;-67
2023/11/06 12:31:34;;;;;;;5.97;1.30;;;;;;;;;;5021908;28;20202;-66
2023/11/06 12:33:59;;;;;;;3.63;1.20;;;;;;;;;;5024619;28;20205;-66
2023/11/06 12:36:25;;;;;;;4.95;1.20;;;;;;;;;;5025827;28;20214;-66
2023/11/06 12:38:51;;;;;;;4.18;0.82;;;;;;;;;;5023994;28;20183;-66
2023/11/06 12:41:27;;;;;;;2.13;1.15;;;;;;;;;;5023532;28;20205;-66
2023/11/06 12:43:53;;;;;;;2.15;1.00;;;;;;;;;;5023236;28;20174;-66
2023/11/06 12:46:18;;;;;;;4.07;1.30;;;;;;;;;;5004640;28;20804;-66
2023/11/06 12:48:43;;;;;;;3.42;0.90;;;;;;;;;;5005674;28;20210;-66
2023/11/06 12:51:09;;;;;;;4.15;0.90;;;;;;;;;;5023971;28;20206;-66
2023/11/06 12:53:35;;;;;;;1.98;0.80;;;;;;;;;;5021337;28;20206;-66
2023/11/06 12:56:01;;;;;;;3.20;1.08;;;;;;;;;;5021788;28;20261;-66
2023/11/06 12:58:27;;;;;;;6.55;1.05;;;;;;;;;;5032355;28;20265;-66
2023/11/06 13:00:56;;;;;;;3.83;0.73;;;;;;;;;;5044123;28;20639;-66
2023/11/06 13:03:25;;;;;;;1.98;0.60;;;;;;;;;;5037977;28;20201;-66
2023/11/06 13:05:52;;;;;;;5.93;1.20;;;;;;;;;;5036644;28;20181;-66
2023/11/06 13:08:17;;;;;;;0.65;0.40;;;;;;;;;;5017701;28;20194;-66
2023/11/06 13:10:42;;;;;;;1.27;0.70;;;;;;;;;;5016390;28;20237;-66
2023/11/06 13:13:08;;;;;;;2.13;0.93;;;;;;;;;;5035549;28;20264;-66
2023/11/06 13:15:34;;;;;;;1.88;0.95;;;;;;;;;;5035357;28;20673;-66
2023/11/06 13:18:00;;;;;;;1.58;0.73;;;;;;;;;;5027145;28;20174;-66
2023/11/06 13:20:28;;;;;;;3.80;0.70;;;;;;;;;;5031323;28;20267;-66
2023/11/06 13:22:58;;;;;;;2.05;0.73;;;;;;;;;;5032188;28;20183;-66
2023/11/06 13:25:24;;;;;;;5.53;1.38;;;;;;;;;;5017555;28;20273;-66
2023/11/06 13:27:50;;;;;;;1.33;0.70;;;;;;;;;;5037365;28;20672;-66
2023/11/06 13:30:15;;;;;;;2.80;0.88;;;;;;;;;;5026230;28;20277;-66
2023/11/06 13:32:42;;;;;;;4.00;1.27;;;;;;;;;;5025143;28;20649;-66
2023/11/06 13:35:07;;;;;;;1.98;0.60;;;;;;;;;;5025413;28;20178;-66
2023/11/06 13:37:32;;;;;;;3.47;0.88;;;;;;;;;;5024600;28;20208;-66
2023/11/06 13:40:05;;;;;;;3.58;1.00;;;;;;;;;;5024640;28;20186;-67
2023/11/06 13:42:31;;;;;;;5.75;1.80;;;;;;;;;;5024945;28;20178;-66
2023/11/06 13:44:56;;;;;;;2.78;0.80;;;;;;;;;;5009569;28;20205;-66
2023/11/06 13:47:21;;;;;;;2.53;0.90;;;;;;;;;;5019372;28;20723;-66
2023/11/06 13:49:49;;;;;;;5.18;1.05;;;;;;;;;;5026179;28;20194;-66
2023/11/06 13:52:26;;;;;;;4.00;1.02;;;;;;;;;;5025765;28;20263;-66
2023/11/06 13:54:52;;;;;;;5.22;1.20;;;;;;;;;;5024924;28;20174;-66
2023/11/06 13:57:21;;;;;;;3.30;1.33;;;;;;;;;;5024529;28;20181;-66
2023/11/06 13:59:46;;;;;;;2.28;0.60;;;;;;;;;;5024283;28;20171;-66
2023/11/06 14:02:16;;;;;;;3.25;1.08;;;;;;;;;;5058339;22;20236;-65
2023/11/06 14:04:49;;;;;;;2.97;0.88;;;;;;;;;;5051359;28;20178;-66
2023/11/06 14:07:14;;;;;;;6.55;1.88;;;;;;;;;;5036082;28;20682;-66
2023/11/06 14:09:44;;;;;;;2.22;1.10;;;;;;;;;;5053358;28;20177;-66
2023/11/06 14:12:10;;;;;;;4.50;1.23;;;;;;;;;;5054003;28;20391;-67
2023/11/06 14:14:36;;;;;;;3.03;1.05;;;;;;;;;;5053307;28;20216;-66
2023/11/06 14:17:04;;;;;;;3.92;0.70;;;;;;;;;;5055589;28;20189;-66
2023/11/06 14:19:29;;;;;;;3.03;1.27;;;;;;;;;;5051322;28;20236;-65
2023/11/06 14:21:55;;;;;;;4.78;1.20;;;;;;;;;;5055226;28;20202;-65
2023/11/06 14:24:20;;;;;;;2.60;0.88;;;;;;;;;;5052095;28;20236;-64
2023/11/06 14:26:45;;;;;;;6.28;1.45;;;;;;;;;;5053716;28;20250;-66
2023/11/06 14:29:10;;;;;;;1.63;0.80;;;;;;;;;;5053638;28;20205;-65
2023/11/06 14:31:36;;;;;;;1.67;1.35;;;;;;;;;;5054518;28;20246;-66
2023/11/06 14:34:01;;;;;;;6.25;1.17;;;;;;;;;;5053463;28;20230;-65
2023/11/06 14:36:26;;;;;;;1.90;0.90;;;;;;;;;;5051714;28;20176;-66
2023/11/06 14:38:51;;;;;;;4.30;1.00;;;;;;;;;;5053861;28;20231;-66